Air Navigation Services of Czech Republic
Airport: LKTB Updated:  25.03.2017 07:38:05  UTC
 METAR LKTB 25.03. 07:30 ...
METAR LKTB 250730Z VRB01KT CAVOK 07/01 Q1029 NOSIG RMK REG QNH 1025=
 TAF LKTB 25.03. 05:00 ...
TAF LKTB 250500Z 2506/2612 04006KT CAVOK=